sensor_id;sensor_type;location;lat;lon;timestamp;pressure;altitude;pressure_sealevel;temperature;humidity
21664;BME280;10993;52.510;13.456;2023-03-26T00:02:47;56451.47;;;-146.93;76.42
21664;BME280;10993;52.510;13.456;2023-03-26T00:07:47;56548.66;;;-146.93;77.79
21664;BME280;10993;52.510;13.456;2023-03-26T00:12:48;56570.91;;;-146.93;78.14
21664;BME280;10993;52.510;13.456;2023-03-26T00:17:49;56538.53;;;-146.93;77.53
21664;BME280;10993;52.510;13.456;2023-03-26T00:22:50;56524.34;;;-146.93;77.43
21664;BME280;10993;52.510;13.456;2023-03-26T00:27:50;56532.44;;;-146.93;76.22
21664;BME280;10993;52.510;13.456;2023-03-26T00:32:52;56544.59;;;-146.93;76.03
21664;BME280;10993;52.510;13.456;2023-03-26T00:37:53;56556.75;;;-146.93;75.30
21664;BME280;10993;52.510;13.456;2023-03-26T00:42:53;56605.34;;;-146.93;75.35
21664;BME280;10993;52.510;13.456;2023-03-26T00:47:55;56548.66;;;-146.93;73.94
21664;BME280;10993;52.510;13.456;2023-03-26T00:52:55;56546.63;;;-146.93;73.56
21664;BME280;10993;52.510;13.456;2023-03-26T00:57:56;56496.00;;;-146.93;72.63
21664;BME280;10993;52.510;13.456;2023-03-26T01:02:58;56548.66;;;-146.93;73.00
21664;BME280;10993;52.510;13.456;2023-03-26T01:07:58;56556.75;;;-146.93;72.06
21664;BME280;10993;52.510;13.456;2023-03-26T01:12:59;56536.50;;;-146.93;71.73
21664;BME280;10993;52.510;13.456;2023-03-26T01:18:01;56508.16;;;-146.93;71.17
21664;BME280;10993;52.510;13.456;2023-03-26T01:23:05;56570.91;;;-146.93;70.91
21664;BME280;10993;52.510;13.456;2023-03-26T01:28:08;56540.53;;;-146.93;72.66
21664;BME280;10993;52.510;13.456;2023-03-26T01:33:16;56536.50;;;-146.93;74.43
21664;BME280;10993;52.510;13.456;2023-03-26T01:38:29;56528.41;;;-146.93;75.37
21664;BME280;10993;52.510;13.456;2023-03-26T01:43:36;56427.16;;;-146.93;75.92
21664;BME280;10993;52.510;13.456;2023-03-26T01:48:39;56536.50;;;-146.93;77.46
21664;BME280;10993;52.510;13.456;2023-03-26T01:53:43;56467.66;;;-146.93;78.13
21664;BME280;10993;52.510;13.456;2023-03-26T01:58:59;56540.53;;;-146.93;78.16
21664;BME280;10993;52.510;13.456;2023-03-26T02:04:09;56558.75;;;-146.93;77.90
21664;BME280;10993;52.510;13.456;2023-03-26T02:09:13;56435.25;;;-146.93;77.14
21664;BME280;10993;52.510;13.456;2023-03-26T02:14:17;56502.06;;;-146.93;78.09
21664;BME280;10993;52.510;13.456;2023-03-26T02:19:17;56534.47;;;-146.93;78.89
21664;BME280;10993;52.510;13.456;2023-03-26T02:24:20;56518.28;;;-146.93;78.97
21664;BME280;10993;52.510;13.456;2023-03-26T02:29:22;56532.44;;;-146.93;79.09
21664;BME280;10993;52.510;13.456;2023-03-26T02:34:22;56554.72;;;-146.93;79.70
21664;BME280;10993;52.510;13.456;2023-03-26T02:39:23;56516.25;;;-146.93;80.31
21664;BME280;10993;52.510;13.456;2023-03-26T02:44:25;56508.16;;;-146.93;80.98
21664;BME280;10993;52.510;13.456;2023-03-26T02:49:26;56508.16;;;-146.93;80.72
21664;BME280;10993;52.510;13.456;2023-03-26T02:54:26;56510.19;;;-146.93;80.93
21664;BME280;10993;52.510;13.456;2023-03-26T02:59:28;56522.31;;;-146.93;81.32
21664;BME280;10993;52.510;13.456;2023-03-26T03:04:28;56542.56;;;-146.93;80.74
21664;BME280;10993;52.510;13.456;2023-03-26T03:09:29;56526.38;;;-146.93;79.85
21664;BME280;10993;52.510;13.456;2023-03-26T03:14:31;56552.69;;;-146.93;79.31
21664;BME280;10993;52.510;13.456;2023-03-26T03:19:31;57172.31;;;-146.93;79.31
21664;BME280;10993;52.510;13.456;2023-03-26T03:24:32;56538.53;;;-146.93;79.01
21664;BME280;10993;52.510;13.456;2023-03-26T03:29:39;56550.66;;;-146.93;78.55
21664;BME280;10993;52.510;13.456;2023-03-26T03:34:40;56552.69;;;-146.93;78.49
21664;BME280;10993;52.510;13.456;2023-03-26T03:39:41;56544.59;;;-146.93;78.20
21664;BME280;10993;52.510;13.456;2023-03-26T03:44:43;56398.81;;;-146.93;77.89
21664;BME280;10993;52.510;13.456;2023-03-26T03:49:43;56542.56;;;-146.93;77.70
21664;BME280;10993;52.510;13.456;2023-03-26T03:54:44;56526.38;;;-146.93;78.68
21664;BME280;10993;52.510;13.456;2023-03-26T03:59:46;57378.88;;;-146.93;78.28
21664;BME280;10993;52.510;13.456;2023-03-26T04:04:46;56550.66;;;-146.93;77.44
21664;BME280;10993;52.510;13.456;2023-03-26T04:09:49;56528.41;;;-146.93;76.84
21664;BME280;10993;52.510;13.456;2023-03-26T04:14:51;56544.59;;;-146.93;76.39
21664;BME280;10993;52.510;13.456;2023-03-26T04:19:51;56536.50;;;-146.93;76.26
21664;BME280;10993;52.510;13.456;2023-03-26T04:24:52;56542.56;;;-146.93;75.53
21664;BME280;10993;52.510;13.456;2023-03-26T04:29:54;56560.78;;;-146.93;75.72
21664;BME280;10993;52.510;13.456;2023-03-26T04:34:57;56564.84;;;-146.93;75.67
21664;BME280;10993;52.510;13.456;2023-03-26T04:39:59;56455.50;;;-146.93;75.37
21664;BME280;10993;52.510;13.456;2023-03-26T04:45:09;56558.75;;;-146.93;75.55
21664;BME280;10993;52.510;13.456;2023-03-26T04:50:10;56528.41;;;-146.93;75.81
21664;BME280;10993;52.510;13.456;2023-03-26T04:55:19;56544.59;;;-146.93;75.44
21664;BME280;10993;52.510;13.456;2023-03-26T05:00:22;56560.78;;;-146.93;75.78
21664;BME280;10993;52.510;13.456;2023-03-26T05:05:23;56522.31;;;-146.93;75.01
21664;BME280;10993;52.510;13.456;2023-03-26T05:10:23;56526.38;;;-146.93;73.77
21664;BME280;10993;52.510;13.456;2023-03-26T05:15:25;57044.72;;;-146.93;73.23
21664;BME280;10993;52.510;13.456;2023-03-26T05:20:28;56564.84;;;-146.93;73.28
21664;BME280;10993;52.510;13.456;2023-03-26T05:25:29;56577.00;;;-146.93;73.66
21664;BME280;10993;52.510;13.456;2023-03-26T05:30:31;56532.44;;;-146.93;73.45
21664;BME280;10993;52.510;13.456;2023-03-26T05:35:31;56532.44;;;-146.93;73.06
21664;BME280;10993;52.510;13.456;2023-03-26T05:40:32;56570.91;;;-146.93;72.89
21664;BME280;10993;52.510;13.456;2023-03-26T05:45:34;56530.41;;;-146.93;73.10
21664;BME280;10993;52.510;13.456;2023-03-26T05:50:34;56570.91;;;-146.93;72.30
21664;BME280;10993;52.510;13.456;2023-03-26T05:55:35;56540.53;;;-146.93;71.41
21664;BME280;10993;52.510;13.456;2023-03-26T06:00:36;56583.06;;;-146.93;71.09
21664;BME280;10993;52.510;13.456;2023-03-26T06:05:38;56609.38;;;-146.93;72.34
21664;BME280;10993;52.510;13.456;2023-03-26T06:10:39;56560.78;;;-146.93;73.65
21664;BME280;10993;52.510;13.456;2023-03-26T06:15:40;56564.84;;;-146.93;74.13
21664;BME280;10993;52.510;13.456;2023-03-26T06:20:41;56560.78;;;-146.93;72.98
21664;BME280;10993;52.510;13.456;2023-03-26T06:25:41;56534.47;;;-146.93;72.24
21664;BME280;10993;52.510;13.456;2023-03-26T06:30:45;56566.88;;;-146.93;70.96
21664;BME280;10993;52.510;13.456;2023-03-26T06:35:46;56601.28;;;-146.93;69.95
21664;BME280;10993;52.510;13.456;2023-03-26T06:40:46;56572.94;;;-146.93;67.90
21664;BME280;10993;52.510;13.456;2023-03-26T06:45:50;56572.94;;;-146.93;66.92
21664;BME280;10993;52.510;13.456;2023-03-26T06:50:51;56568.88;;;-146.93;70.02
21664;BME280;10993;52.510;13.456;2023-03-26T06:55:52;56558.75;;;-146.93;72.11
21664;BME280;10993;52.510;13.456;2023-03-26T07:00:54;56556.75;;;-146.93;73.46
21664;BME280;10993;52.510;13.456;2023-03-26T07:05:55;56548.66;;;-146.93;72.48
21664;BME280;10993;52.510;13.456;2023-03-26T07:10:55;56629.63;;;-146.93;66.05
21664;BME280;10993;52.510;13.456;2023-03-26T07:15:57;56666.06;;;-146.93;62.32
21664;BME280;10993;52.510;13.456;2023-03-26T07:20:58;56686.31;;;-146.93;59.71
21664;BME280;10993;52.510;13.456;2023-03-26T07:25:59;56698.47;;;-146.93;58.21
21664;BME280;10993;52.510;13.456;2023-03-26T07:31:15;56698.47;;;-146.93;57.44
21664;BME280;10993;52.510;13.456;2023-03-26T07:36:24;56761.25;;;-146.93;52.81
21664;BME280;10993;52.510;13.456;2023-03-26T07:41:30;56803.75;;;-146.93;52.30
21664;BME280;10993;52.510;13.456;2023-03-26T07:46:35;56714.66;;;-146.93;54.11
21664;BME280;10993;52.510;13.456;2023-03-26T07:51:36;56633.69;;;-146.93;54.75
21664;BME280;10993;52.510;13.456;2023-03-26T07:56:40;56718.72;;;-146.93;52.96
21664;BME280;10993;52.510;13.456;2023-03-26T08:02:02;56698.47;;;-146.93;51.44
21664;BME280;10993;52.510;13.456;2023-03-26T08:07:22;56722.78;;;-146.93;53.22
21664;BME280;10993;52.510;13.456;2023-03-26T08:12:36;56706.56;;;-146.93;53.71
21664;BME280;10993;52.510;13.456;2023-03-26T08:17:43;57212.81;;;-146.93;53.33
21664;BME280;10993;52.510;13.456;2023-03-26T08:22:49;56536.50;;;-146.93;52.70
21664;BME280;10993;52.510;13.456;2023-03-26T08:28:04;56716.69;;;-146.93;53.82
21664;BME280;10993;52.510;13.456;2023-03-26T08:33:13;56704.53;;;-146.93;52.55
21664;BME280;10993;52.510;13.456;2023-03-26T08:38:17;56730.88;;;-146.93;50.99
21664;BME280;10993;52.510;13.456;2023-03-26T08:43:37;56698.47;;;-146.93;49.13
21664;BME280;10993;52.510;13.456;2023-03-26T08:48:59;56741.00;;;-146.93;50.17
21664;BME280;10993;52.510;13.456;2023-03-26T08:54:31;56724.78;;;-146.93;51.40
21664;BME280;10993;52.510;13.456;2023-03-26T09:10:50;56730.88;;;-146.93;52.29
21664;BME280;10993;52.510;13.456;2023-03-26T09:27:08;56595.22;;;-146.93;49.63
21664;BME280;10993;52.510;13.456;2023-03-26T09:32:39;56716.69;;;-146.93;51.81
21664;BME280;10993;52.510;13.456;2023-03-26T09:37:56;56688.34;;;-146.93;53.60
21664;BME280;10993;52.510;13.456;2023-03-26T09:43:03;56680.25;;;-146.93;56.64
21664;BME280;10993;52.510;13.456;2023-03-26T09:48:28;56581.03;;;-146.93;64.40
21664;BME280;10993;52.510;13.456;2023-03-26T09:53:46;56496.00;;;-146.93;70.43
21664;BME280;10993;52.510;13.456;2023-03-26T09:59:14;56607.34;;;-146.93;71.93
21664;BME280;10993;52.510;13.456;2023-03-26T10:04:44;56572.94;;;-146.93;71.40
21664;BME280;10993;52.510;13.456;2023-03-26T10:09:56;56619.50;;;-146.93;71.52
21664;BME280;10993;52.510;13.456;2023-03-26T10:15:07;56583.06;;;-146.93;70.36
21664;BME280;10993;52.510;13.456;2023-03-26T10:20:31;56568.88;;;-146.93;70.22
21664;BME280;10993;52.510;13.456;2023-03-26T10:25:54;56621.53;;;-146.93;67.46
21664;BME280;10993;52.510;13.456;2023-03-26T10:31:22;56510.19;;;-146.93;65.48
21664;BME280;10993;52.510;13.456;2023-03-26T10:36:29;56621.53;;;-146.93;65.67
21664;BME280;10993;52.510;13.456;2023-03-26T10:41:40;56629.63;;;-146.93;66.44
21664;BME280;10993;52.510;13.456;2023-03-26T10:47:00;56639.75;;;-146.93;64.82
21664;BME280;10993;52.510;13.456;2023-03-26T10:52:08;56674.19;;;-146.93;63.60
21664;BME280;10993;52.510;13.456;2023-03-26T10:57:21;56692.41;;;-146.93;61.76
21664;BME280;10993;52.510;13.456;2023-03-26T11:02:28;56722.78;;;-146.93;61.62
21664;BME280;10993;52.510;13.456;2023-03-26T11:07:33;56690.38;;;-146.93;59.11
21664;BME280;10993;52.510;13.456;2023-03-26T11:12:40;56787.56;;;-146.93;56.76
21664;BME280;10993;52.510;13.456;2023-03-26T11:17:51;56773.38;;;-146.93;55.59
21664;BME280;10993;52.510;13.456;2023-03-26T11:23:07;56828.06;;;-146.93;51.90
21664;BME280;10993;52.510;13.456;2023-03-26T11:28:24;57040.69;;;-146.93;46.36
21664;BME280;10993;52.510;13.456;2023-03-26T11:33:31;57028.53;;;-146.93;46.46
21664;BME280;10993;52.510;13.456;2023-03-26T11:38:37;57058.91;;;-146.93;44.85
21664;BME280;10993;52.510;13.456;2023-03-26T11:43:39;57032.56;;;-146.93;43.80
21664;BME280;10993;52.510;13.456;2023-03-26T11:48:42;56955.63;;;-146.93;47.80
21664;BME280;10993;52.510;13.456;2023-03-26T11:53:45;56994.09;;;-146.93;47.27
21664;BME280;10993;52.510;13.456;2023-03-26T11:58:50;56981.94;;;-146.93;43.82
21664;BME280;10993;52.510;13.456;2023-03-26T12:03:56;57002.19;;;-146.93;43.46
21664;BME280;10993;52.510;13.456;2023-03-26T12:08:58;56894.88;;;-146.93;44.78
21664;BME280;10993;52.510;13.456;2023-03-26T12:14:01;56963.72;;;-146.93;45.19
21664;BME280;10993;52.510;13.456;2023-03-26T12:19:04;56988.03;;;-146.93;42.38
21664;BME280;10993;52.510;13.456;2023-03-26T12:24:23;56949.56;;;-146.93;45.29
21664;BME280;10993;52.510;13.456;2023-03-26T12:29:28;56965.75;;;-146.93;43.13
21664;BME280;10993;52.510;13.456;2023-03-26T12:34:30;56880.72;;;-146.93;44.00
21664;BME280;10993;52.510;13.456;2023-03-26T12:39:35;56819.97;;;-146.93;46.66
21664;BME280;10993;52.510;13.456;2023-03-26T12:44:45;56842.22;;;-146.93;46.90
21664;BME280;10993;52.510;13.456;2023-03-26T12:49:47;56852.34;;;-146.93;45.32
21664;BME280;10993;52.510;13.456;2023-03-26T12:54:53;56828.06;;;-146.93;43.62
21664;BME280;10993;52.510;13.456;2023-03-26T13:00:23;57358.63;;;-146.93;42.81
21664;BME280;10993;52.510;13.456;2023-03-26T13:05:40;56892.84;;;-146.93;42.94
21664;BME280;10993;52.510;13.456;2023-03-26T13:10:47;56909.06;;;-146.93;43.16
21664;BME280;10993;52.510;13.456;2023-03-26T13:15:51;56894.88;;;-146.93;42.67
21664;BME280;10993;52.510;13.456;2023-03-26T13:20:57;56911.09;;;-146.93;42.45
21664;BME280;10993;52.510;13.456;2023-03-26T13:26:07;56939.44;;;-146.93;39.74
21664;BME280;10993;52.510;13.456;2023-03-26T13:31:17;57073.06;;;-146.93;38.52
21664;BME280;10993;52.510;13.456;2023-03-26T13:36:28;56994.09;;;-146.93;38.52
21664;BME280;10993;52.510;13.456;2023-03-26T13:41:42;57018.41;;;-146.93;37.69
21664;BME280;10993;52.510;13.456;2023-03-26T13:46:50;56990.06;;;-146.93;36.93
21664;BME280;10993;52.510;13.456;2023-03-26T13:51:56;56949.56;;;-146.93;38.13
21664;BME280;10993;52.510;13.456;2023-03-26T13:57:05;56986.00;;;-146.93;37.52
21664;BME280;10993;52.510;13.456;2023-03-26T14:02:11;57030.56;;;-146.93;37.72
21664;BME280;10993;52.510;13.456;2023-03-26T14:07:17;56937.41;;;-146.93;38.11
21664;BME280;10993;52.510;13.456;2023-03-26T14:12:32;57006.25;;;-146.93;37.48
21664;BME280;10993;52.510;13.456;2023-03-26T14:17:40;56931.34;;;-146.93;39.14
21664;BME280;10993;52.510;13.456;2023-03-26T14:22:54;56977.91;;;-146.93;38.58
21664;BME280;10993;52.510;13.456;2023-03-26T14:28:08;56937.41;;;-146.93;38.90
21664;BME280;10993;52.510;13.456;2023-03-26T14:33:26;56981.94;;;-146.93;38.23
21664;BME280;10993;52.510;13.456;2023-03-26T14:38:52;56941.44;;;-146.93;38.45
21664;BME280;10993;52.510;13.456;2023-03-26T14:44:22;56917.16;;;-146.93;38.73
21664;BME280;10993;52.510;13.456;2023-03-26T14:49:43;56905.00;;;-146.93;39.60
21664;BME280;10993;52.510;13.456;2023-03-26T14:54:49;56844.25;;;-146.93;40.72
21664;BME280;10993;52.510;13.456;2023-03-26T15:00:23;56815.91;;;-146.93;40.13
21664;BME280;10993;52.510;13.456;2023-03-26T15:05:44;56842.22;;;-146.93;40.27
21664;BME280;10993;52.510;13.456;2023-03-26T15:11:07;56830.09;;;-146.93;40.62
21664;BME280;10993;52.510;13.456;2023-03-26T15:16:31;56763.28;;;-146.93;41.16
21664;BME280;10993;52.510;13.456;2023-03-26T15:27:36;56771.38;;;-146.93;40.89
21664;BME280;10993;52.510;13.456;2023-03-26T15:33:07;56749.09;;;-146.93;41.98
21664;BME280;10993;52.510;13.456;2023-03-26T15:44:12;56751.13;;;-146.93;42.86
21664;BME280;10993;52.510;13.456;2023-03-26T15:49:22;56761.25;;;-146.93;43.14
21664;BME280;10993;52.510;13.456;2023-03-26T15:54:28;56706.56;;;-146.93;42.50
21664;BME280;10993;52.510;13.456;2023-03-26T15:59:39;56757.19;;;-146.93;43.16
21664;BME280;10993;52.510;13.456;2023-03-26T16:04:44;56706.56;;;-146.93;44.23
21664;BME280;10993;52.510;13.456;2023-03-26T16:09:55;56682.28;;;-146.93;43.97
21664;BME280;10993;52.510;13.456;2023-03-26T16:15:23;56706.56;;;-146.93;44.60
21664;BME280;10993;52.510;13.456;2023-03-26T16:20:28;56726.81;;;-146.93;44.13
21664;BME280;10993;52.510;13.456;2023-03-26T16:25:33;56734.91;;;-146.93;43.67
21664;BME280;10993;52.510;13.456;2023-03-26T16:30:36;56682.28;;;-146.93;43.45
21664;BME280;10993;52.510;13.456;2023-03-26T16:36:02;56694.41;;;-146.93;43.74
21664;BME280;10993;52.510;13.456;2023-03-26T16:41:06;56720.75;;;-146.93;43.43
21664;BME280;10993;52.510;13.456;2023-03-26T16:46:25;56653.94;;;-146.93;44.21
21664;BME280;10993;52.510;13.456;2023-03-26T16:51:45;56649.88;;;-146.93;45.67
21664;BME280;10993;52.510;13.456;2023-03-26T16:56:53;56607.34;;;-146.93;45.79
21664;BME280;10993;52.510;13.456;2023-03-26T17:02:02;56613.44;;;-146.93;47.31
21664;BME280;10993;52.510;13.456;2023-03-26T17:07:11;56534.47;;;-146.93;47.55
21664;BME280;10993;52.510;13.456;2023-03-26T17:12:18;56631.66;;;-146.93;48.00
21664;BME280;10993;52.510;13.456;2023-03-26T17:17:33;56645.81;;;-146.93;49.16
21664;BME280;10993;52.510;13.456;2023-03-26T17:22:38;56613.44;;;-146.93;49.70
21664;BME280;10993;52.510;13.456;2023-03-26T17:27:45;56605.34;;;-146.93;50.26
21664;BME280;10993;52.510;13.456;2023-03-26T17:32:57;56986.00;;;-146.93;51.22
21664;BME280;10993;52.510;13.456;2023-03-26T17:37:59;56538.53;;;-146.93;51.91
21664;BME280;10993;52.510;13.456;2023-03-26T17:43:00;56611.41;;;-146.93;51.56
21664;BME280;10993;52.510;13.456;2023-03-26T17:48:07;56601.28;;;-146.93;51.49
21664;BME280;10993;52.510;13.456;2023-03-26T17:53:16;56601.28;;;-146.93;51.42
21664;BME280;10993;52.510;13.456;2023-03-26T17:58:22;56479.81;;;-146.93;51.43
21664;BME280;10993;52.510;13.456;2023-03-26T18:03:29;56595.22;;;-146.93;50.90
21664;BME280;10993;52.510;13.456;2023-03-26T18:08:41;56589.13;;;-146.93;50.57
21664;BME280;10993;52.510;13.456;2023-03-26T18:14:16;56560.78;;;-146.93;49.54
21664;BME280;10993;52.510;13.456;2023-03-26T18:19:21;56577.00;;;-146.93;48.83
21664;BME280;10993;52.510;13.456;2023-03-26T18:24:24;56613.44;;;-146.93;47.99
21664;BME280;10993;52.510;13.456;2023-03-26T18:29:27;56595.22;;;-146.93;46.55
21664;BME280;10993;52.510;13.456;2023-03-26T18:34:31;56558.75;;;-146.93;45.67
21664;BME280;10993;52.510;13.456;2023-03-26T18:39:32;56577.00;;;-146.93;45.74
21664;BME280;10993;52.510;13.456;2023-03-26T18:44:34;56585.09;;;-146.93;45.23
21664;BME280;10993;52.510;13.456;2023-03-26T18:49:40;56589.13;;;-146.93;45.25
21664;BME280;10993;52.510;13.456;2023-03-26T18:54:42;56605.34;;;-146.93;44.80
21664;BME280;10993;52.510;13.456;2023-03-26T18:59:47;56570.91;;;-146.93;44.89
21664;BME280;10993;52.510;13.456;2023-03-26T19:04:50;56587.13;;;-146.93;44.47
21664;BME280;10993;52.510;13.456;2023-03-26T19:09:53;56540.53;;;-146.93;45.45
21664;BME280;10993;52.510;13.456;2023-03-26T19:14:57;56522.31;;;-146.93;45.59
21664;BME280;10993;52.510;13.456;2023-03-26T19:20:06;56548.66;;;-146.93;45.91
21664;BME280;10993;52.510;13.456;2023-03-26T19:25:19;56406.91;;;-146.93;45.97
21664;BME280;10993;52.510;13.456;2023-03-26T19:30:26;56433.25;;;-146.93;46.15
21664;BME280;10993;52.510;13.456;2023-03-26T19:35:35;56552.69;;;-146.93;45.98
21664;BME280;10993;52.510;13.456;2023-03-26T19:40:39;56540.53;;;-146.93;45.79
21664;BME280;10993;52.510;13.456;2023-03-26T19:45:41;56534.47;;;-146.93;46.07
21664;BME280;10993;52.510;13.456;2023-03-26T19:50:53;56540.53;;;-146.93;45.86
21664;BME280;10993;52.510;13.456;2023-03-26T19:55:55;57897.34;;;-146.93;45.96
21664;BME280;10993;52.510;13.456;2023-03-26T20:00:56;56451.47;;;-146.93;46.27
21664;BME280;10993;52.510;13.456;2023-03-26T20:05:58;56530.41;;;-146.93;46.01
21664;BME280;10993;52.510;13.456;2023-03-26T20:10:59;56550.66;;;-146.93;46.16
21664;BME280;10993;52.510;13.456;2023-03-26T20:16:03;56524.34;;;-146.93;46.62
21664;BME280;10993;52.510;13.456;2023-03-26T20:21:10;56512.19;;;-146.93;47.57
21664;BME280;10993;52.510;13.456;2023-03-26T20:26:13;56508.16;;;-146.93;47.25
21664;BME280;10993;52.510;13.456;2023-03-26T20:31:15;56520.28;;;-146.93;47.55
21664;BME280;10993;52.510;13.456;2023-03-26T20:36:18;56532.44;;;-146.93;50.70
21664;BME280;10993;52.510;13.456;2023-03-26T20:41:21;56441.34;;;-146.93;50.77
21664;BME280;10993;52.510;13.456;2023-03-26T20:46:23;56560.78;;;-146.93;50.50
21664;BME280;10993;52.510;13.456;2023-03-26T20:51:26;56546.63;;;-146.93;49.18
21664;BME280;10993;52.510;13.456;2023-03-26T20:56:27;56512.19;;;-146.93;49.76
21664;BME280;10993;52.510;13.456;2023-03-26T21:01:28;56500.06;;;-146.93;48.87
21664;BME280;10993;52.510;13.456;2023-03-26T21:06:29;56514.22;;;-146.93;49.39
21664;BME280;10993;52.510;13.456;2023-03-26T21:11:40;56479.81;;;-146.93;48.89
21664;BME280;10993;52.510;13.456;2023-03-26T21:16:44;56475.75;;;-146.93;48.75
21664;BME280;10993;52.510;13.456;2023-03-26T21:21:58;56500.06;;;-146.93;48.09
21664;BME280;10993;52.510;13.456;2023-03-26T21:27:03;56506.13;;;-146.93;48.24
21664;BME280;10993;52.510;13.456;2023-03-26T21:32:09;56445.38;;;-146.93;48.01
21664;BME280;10993;52.510;13.456;2023-03-26T21:37:11;56504.09;;;-146.93;48.93
21664;BME280;10993;52.510;13.456;2023-03-26T21:42:13;56508.16;;;-146.93;49.07
21664;BME280;10993;52.510;13.456;2023-03-26T21:47:13;56496.00;;;-146.93;49.36
21664;BME280;10993;52.510;13.456;2023-03-26T21:52:16;56500.06;;;-146.93;49.58
21664;BME280;10993;52.510;13.456;2023-03-26T21:57:29;56496.00;;;-146.93;49.71
21664;BME280;10993;52.510;13.456;2023-03-26T22:02:40;56510.19;;;-146.93;50.25
21664;BME280;10993;52.510;13.456;2023-03-26T22:07:50;56469.69;;;-146.93;49.26
21664;BME280;10993;52.510;13.456;2023-03-26T22:12:52;56508.16;;;-146.93;49.82
21664;BME280;10993;52.510;13.456;2023-03-26T22:17:52;56483.84;;;-146.93;50.15
21664;BME280;10993;52.510;13.456;2023-03-26T22:22:56;56457.53;;;-146.93;49.69
21664;BME280;10993;52.510;13.456;2023-03-26T22:27:56;56520.28;;;-146.93;50.10
21664;BME280;10993;52.510;13.456;2023-03-26T22:32:56;56528.41;;;-146.93;51.20
21664;BME280;10993;52.510;13.456;2023-03-26T22:37:59;56479.81;;;-146.93;52.27
21664;BME280;10993;52.510;13.456;2023-03-26T22:42:59;56487.91;;;-146.93;52.99
21664;BME280;10993;52.510;13.456;2023-03-26T22:47:59;56633.69;;;-146.93;53.00
21664;BME280;10993;52.510;13.456;2023-03-26T22:53:04;56526.38;;;-146.93;53.22
21664;BME280;10993;52.510;13.456;2023-03-26T22:58:04;56706.56;;;-146.93;53.82
21664;BME280;10993;52.510;13.456;2023-03-26T23:03:04;56471.72;;;-146.93;53.85
21664;BME280;10993;52.510;13.456;2023-03-26T23:08:06;56532.44;;;-146.93;53.87
21664;BME280;10993;52.510;13.456;2023-03-26T23:13:07;56445.38;;;-146.93;54.68
21664;BME280;10993;52.510;13.456;2023-03-26T23:18:07;57362.66;;;-146.93;54.36
21664;BME280;10993;52.510;13.456;2023-03-26T23:23:09;56344.16;;;-146.93;55.20
21664;BME280;10993;52.510;13.456;2023-03-26T23:28:09;56493.97;;;-146.93;54.79
21664;BME280;10993;52.510;13.456;2023-03-26T23:33:09;56502.06;;;-146.93;55.18
21664;BME280;10993;52.510;13.456;2023-03-26T23:38:11;56491.94;;;-146.93;55.38
21664;BME280;10993;52.510;13.456;2023-03-26T23:43:12;56487.91;;;-146.93;56.00
21664;BME280;10993;52.510;13.456;2023-03-26T23:48:13;56475.75;;;-146.93;56.42
21664;BME280;10993;52.510;13.456;2023-03-26T23:53:19;56344.16;;;-146.93;57.14
21664;BME280;10993;52.510;13.456;2023-03-26T23:58:21;56520.28;;;-146.93;57.28
